Time;durP1;ratioP1;P1;durP2;ratioP2;P2;SDS_P1;SDS_P2;PMS_P1;PMS_P2;Temp;Humidity;BMP_temperature;BMP_pressure;BME280_temperature;BME280_humidity;BME280_pressure;Samples;Min_cycle;Max_cycle;Signal;HPM_P1;HPM_P2
2022/06/18 00:00:14;;;;;;;;;9.33;9.33;;;;;29.33;32.43;101397.72;5028456;28;45194;-70
2022/06/18 00:02:41;;;;;;;;;10.00;10.00;;;;;29.35;33.00;101393.06;5023705;28;45331;-71
2022/06/18 00:05:08;;;;;;;;;12.00;12.00;;;;;29.35;33.21;101401.31;5021469;28;45311;-71
2022/06/18 00:07:38;;;;;;;;;9.00;9.00;;;;;29.33;32.75;101395.88;5022719;28;45284;-70
2022/06/18 00:10:06;;;;;;;;;13.00;11.33;;;;;29.31;32.81;101392.28;5022248;28;45152;-70
2022/06/18 00:15:26;;;;;;;;;12.67;11.67;;;;;29.23;33.42;101388.97;5023132;28;45301;-71
2022/06/18 00:17:52;;;;;;;;;9.33;9.00;;;;;29.21;33.11;101388.13;5029317;28;44917;-70
2022/06/18 00:20:21;;;;;;;;;12.00;12.00;;;;;29.19;33.28;101390.06;5029122;28;46063;-69
2022/06/18 00:22:51;;;;;;;;;12.33;11.00;;;;;29.16;33.53;101385.53;5028407;28;45324;-70
2022/06/18 00:25:19;;;;;;;;;10.67;9.00;;;;;29.15;33.44;101382.84;5017762;28;45163;-71
2022/06/18 00:27:44;;;;;;;;;9.33;9.33;;;;;29.03;33.60;101368.63;5028574;28;44970;-70
2022/06/18 00:30:12;;;;;;;;;9.33;9.33;;;;;29.08;34.02;101384.06;5027821;28;45206;-69
2022/06/18 00:32:38;;;;;;;;;10.00;10.00;;;;;29.01;34.06;101383.41;5028443;28;46262;-70
2022/06/18 00:35:04;;;;;;;;;11.33;10.33;;;;;28.97;33.82;101376.22;5027948;28;45199;-71
2022/06/18 00:37:29;;;;;;;;;10.00;8.33;;;;;29.01;34.23;101384.31;5029660;28;45060;-69
2022/06/18 00:39:54;;;;;;;;;12.67;11.33;;;;;28.71;34.28;101334.19;5028468;28;45424;-68
2022/06/18 00:42:28;;;;;;;;;10.67;10.67;;;;;28.91;33.81;101382.00;5029161;28;46275;-70
2022/06/18 00:44:57;;;;;;;;;12.67;10.67;;;;;28.92;34.18;101381.91;5027874;28;45020;-70
2022/06/18 00:47:36;;;;;;;;;9.00;8.00;;;;;28.89;33.99;101384.81;5028433;28;45398;-70
2022/06/18 00:50:31;;;;;;;;;11.00;11.00;;;;;28.89;34.00;101381.16;5028404;28;45155;-70
2022/06/18 00:53:10;;;;;;;;;7.33;7.33;;;;;28.86;33.72;101388.56;5024080;28;46086;-70
2022/06/18 00:55:48;;;;;;;;;10.00;10.00;;;;;28.83;34.02;101382.31;5029594;28;45265;-70
2022/06/18 00:58:35;;;;;;;;;8.33;8.00;;;;;28.78;34.21;101387.09;5028004;28;45571;-70
2022/06/18 01:01:02;;;;;;;;;9.00;9.00;;;;;28.75;34.34;101387.22;5026204;28;45246;-70
2022/06/18 01:03:31;;;;;;;;;11.67;11.00;;;;;28.58;34.44;101360.38;5034575;28;45603;-70
2022/06/18 01:06:00;;;;;;;;;11.33;9.67;;;;;28.54;34.15;101353.16;5032633;28;45076;-70
2022/06/18 01:08:30;;;;;;;;;11.00;10.00;;;;;28.67;34.42;101388.38;5034089;28;44772;-70
2022/06/18 01:11:03;;;;;;;;;6.33;6.33;;;;;28.46;34.37;101358.97;5035598;28;45162;-71
2022/06/18 01:13:35;;;;;;;;;9.00;9.00;;;;;28.63;34.30;101392.22;5033403;28;45972;-71
2022/06/18 01:16:03;;;;;;;;;11.33;8.33;;;;;28.62;34.55;101386.78;5030984;28;45721;-71
2022/06/18 01:18:29;;;;;;;;;9.33;7.00;;;;;28.61;34.09;101383.16;5025688;28;45281;-70
2022/06/18 01:21:04;;;;;;;;;5.00;5.00;;;;;28.52;34.07;101366.97;5032009;28;45123;-71
2022/06/18 01:23:49;;;;;;;;;8.33;6.00;;;;;28.60;34.36;101385.97;5031768;28;46431;-70
2022/06/18 01:26:15;;;;;;;;;8.00;7.33;;;;;28.57;34.64;101384.22;5030872;28;45107;-71
2022/06/18 01:28:41;;;;;;;;;10.33;9.67;;;;;28.44;34.62;101359.00;5033841;28;45159;-71
2022/06/18 01:31:07;;;;;;;;;11.00;10.33;;;;;28.38;34.59;101361.09;5031225;28;44905;-70
2022/06/18 01:33:33;;;;;;;;;9.33;8.67;;;;;28.34;35.10;101354.84;5032667;28;45697;-69
2022/06/18 01:36:03;;;;;;;;;9.33;8.33;;;;;28.32;35.65;101362.25;5032919;28;44950;-70
2022/06/18 01:38:29;;;;;;;;;14.33;13.00;;;;;28.39;35.15;101373.91;5034832;28;45195;-71
2022/06/18 01:43:55;;;;;;;;;10.00;8.33;;;;;28.27;35.81;101359.66;5034073;28;45323;-71
2022/06/18 01:46:21;;;;;;;;;9.33;9.00;;;;;28.16;35.80;101344.53;5033690;28;45116;-70
2022/06/18 01:48:49;;;;;;;;;8.67;8.67;;;;;28.30;35.83;101366.91;5032115;28;45051;-71
2022/06/18 01:51:24;;;;;;;;;9.00;7.67;;;;;28.19;35.71;101341.69;5031942;28;45118;-70
2022/06/18 01:53:55;;;;;;;;;7.33;7.00;;;;;28.23;36.04;101349.75;5031280;28;45528;-71
2022/06/18 01:56:25;;;;;;;;;8.33;6.67;;;;;28.23;35.94;101351.59;5028544;28;46320;-70
2022/06/18 01:59:04;;;;;;;;;10.00;10.00;;;;;28.27;36.35;101350.53;5032724;28;45184;-70
2022/06/18 02:01:36;;;;;;;;;7.67;7.67;;;;;28.10;36.23;101337.44;5032824;28;45189;-70
2022/06/18 02:04:02;;;;;;;;;10.00;10.00;;;;;28.18;36.73;101348.13;5031850;28;45994;-71
2022/06/18 02:06:30;;;;;;;;;9.00;7.33;;;;;28.03;36.55;101342.28;5032953;28;44957;-71
2022/06/18 02:08:55;;;;;;;;;15.00;10.33;;;;;28.12;36.47;101352.00;5029535;28;45054;-70
2022/06/18 02:11:22;;;;;;;;;12.33;9.33;;;;;27.63;36.49;101266.81;5033562;28;45269;-70
2022/06/18 02:13:55;;;;;;;;;9.33;9.33;;;;;27.82;36.98;101293.56;5047503;28;46084;-71
2022/06/18 02:16:26;;;;;;;;;8.67;8.67;;;;;28.11;37.08;101344.72;5031556;28;45155;-70
2022/06/18 02:18:52;;;;;;;;;11.33;10.33;;;;;28.05;36.77;101340.34;5033733;28;44942;-70
2022/06/18 02:21:22;;;;;;;;;8.33;8.33;;;;;28.03;36.95;101339.53;5033372;28;46288;-70
2022/06/18 02:23:51;;;;;;;;;10.33;10.33;;;;;28.06;37.15;101344.00;5032018;28;45767;-70
2022/06/18 02:26:16;;;;;;;;;7.00;6.67;;;;;28.04;37.43;101343.16;5027596;28;45187;-70
2022/06/18 02:28:43;;;;;;;;;12.00;12.00;;;;;28.05;37.49;101342.19;5032590;28;44934;-70
2022/06/18 02:31:17;;;;;;;;;12.00;11.33;;;;;27.93;37.50;101329.81;5034078;28;45129;-71
2022/06/18 02:33:45;;;;;;;;;10.33;8.67;;;;;27.90;37.42;101332.63;5031775;28;46255;-70
2022/06/18 02:36:21;;;;;;;;;10.00;9.67;;;;;27.92;37.36;101334.38;5033559;28;45060;-71
2022/06/18 02:38:47;;;;;;;;;9.00;9.00;;;;;27.92;37.31;101328.88;5031904;28;45072;-70
2022/06/18 02:41:13;;;;;;;;;10.33;10.33;;;;;27.93;37.66;101324.31;5033598;28;45259;-70
2022/06/18 02:43:41;;;;;;;;;10.67;10.00;;;;;27.88;37.80;101315.31;5032757;28;45767;-72
2022/06/18 02:46:08;;;;;;;;;8.00;8.00;;;;;27.91;37.68;101323.44;5033234;28;44863;-70
2022/06/18 02:48:36;;;;;;;;;10.00;10.00;;;;;27.90;37.65;101307.91;5033528;28;45143;-70
2022/06/18 02:51:02;;;;;;;;;8.33;8.33;;;;;27.92;37.50;101306.91;5032265;28;45028;-72
2022/06/18 02:53:29;;;;;;;;;10.33;8.33;;;;;27.91;37.65;101305.13;5033318;28;45593;-70
2022/06/18 02:55:59;;;;;;;;;8.33;8.33;;;;;27.91;38.17;101305.13;5031115;28;45195;-71
2022/06/18 02:58:30;;;;;;;;;10.00;9.67;;;;;27.30;37.78;101201.22;5029807;28;45118;-70
2022/06/18 03:01:01;;;;;;;;;15.00;13.00;;;;;27.76;38.10;101287.34;5031389;28;45168;-70
2022/06/18 03:03:32;;;;;;;;;11.00;11.00;;;;;27.51;38.54;101240.69;5030406;28;45603;-70
2022/06/18 03:05:57;;;;;;;;;10.00;9.00;;;;;27.82;38.59;101294.50;5029572;28;46431;-70
2022/06/18 03:08:25;;;;;;;;;13.00;11.75;;;;;27.77;38.37;101291.03;5031340;28;45280;-70
2022/06/18 03:13:36;;;;;;;;;12.00;11.00;;;;;27.76;38.44;101281.88;5031472;28;44990;-70
2022/06/18 03:16:04;;;;;;;;;10.00;10.00;;;;;27.68;38.84;101261.16;5026955;28;45327;-70
2022/06/18 03:18:30;;;;;;;;;15.33;12.00;;;;;27.72;38.58;101269.22;5031101;28;45358;-71
2022/06/18 03:21:03;;;;;;;;;8.50;8.25;;;;;27.60;39.07;101241.31;5030330;28;45286;-70
2022/06/18 03:23:28;;;;;;;;;8.33;8.33;;;;;27.65;39.04;101256.66;5030172;28;46048;-70
2022/06/18 03:25:54;;;;;;;;;12.00;11.33;;;;;27.61;39.08;101255.00;5028529;28;45271;-70
2022/06/18 03:28:21;;;;;;;;;12.00;10.67;;;;;27.46;39.33;101248.22;5029358;28;45082;-69
2022/06/18 03:30:46;;;;;;;;;9.67;9.67;;;;;27.52;39.34;101255.31;5027202;28;45144;-69
2022/06/18 03:33:12;;;;;;;;;10.33;10.33;;;;;27.56;39.52;101254.25;5032297;28;45419;-69
2022/06/18 03:35:44;;;;;;;;;12.33;9.67;;;;;27.50;39.65;101247.13;5030292;28;45109;-70
2022/06/18 03:38:10;;;;;;;;;9.33;9.33;;;;;27.40;39.43;101223.72;5030606;28;45101;-70
2022/06/18 03:40:36;;;;;;;;;11.33;9.67;;;;;27.38;39.54;101221.03;5032562;28;44966;-71
2022/06/18 03:43:01;;;;;;;;;14.50;13.50;;;;;27.50;39.80;101246.25;5031185;28;45570;-70
2022/06/18 03:45:29;;;;;;;;;12.00;11.00;;;;;27.49;39.86;101250.84;5030597;28;45288;-70
2022/06/18 03:47:55;;;;;;;;;11.33;9.67;;;;;27.44;40.10;101251.94;5025301;28;45105;-70
2022/06/18 03:50:20;;;;;;;;;11.33;11.33;;;;;27.41;40.02;101252.09;5032541;28;45202;-70
2022/06/18 03:52:46;;;;;;;;;11.00;11.00;;;;;27.24;40.24;101220.63;5030458;28;45282;-70
2022/06/18 03:55:13;;;;;;;;;12.00;10.33;;;;;27.40;40.04;101242.94;5030956;28;45569;-70
2022/06/18 03:57:39;;;;;;;;;9.33;9.33;;;;;27.13;40.26;101206.38;5032473;28;45147;-71
2022/06/18 04:00:09;;;;;;;;;13.67;12.00;;;;;27.37;40.11;101243.03;5031836;28;44953;-69
2022/06/18 04:02:34;;;;;;;;;9.00;9.00;;;;;27.37;40.08;101248.53;5029955;28;46181;-70
2022/06/18 04:04:59;;;;;;;;;12.33;10.00;;;;;27.32;40.03;101254.22;5028954;28;45256;-70
2022/06/18 04:07:25;;;;;;;;;12.00;10.67;;;;;27.31;40.37;101255.16;5030754;28;45112;-70
2022/06/18 04:09:52;;;;;;;;;15.00;12.00;;;;;27.31;40.23;101251.50;5028393;28;45147;-71
2022/06/18 04:12:18;;;;;;;;;10.67;9.00;;;;;27.20;39.89;101227.16;5029117;28;45653;-71
2022/06/18 04:14:44;;;;;;;;;11.00;7.67;;;;;26.86;40.05;101168.03;5028670;28;46607;-70
2022/06/18 04:17:12;;;;;;;;;15.00;11.00;;;;;27.25;40.09;101238.84;5028682;28;45340;-70
2022/06/18 04:19:38;;;;;;;;;9.33;9.33;;;;;27.23;40.65;101239.88;5028343;28;45285;-70
2022/06/18 04:22:03;;;;;;;;;13.67;12.33;;;;;27.14;40.69;101233.78;5030699;28;45528;-70
2022/06/18 04:24:28;;;;;;;;;10.00;10.00;;;;;27.14;40.74;101236.50;5026877;28;45650;-69
2022/06/18 04:26:54;;;;;;;;;12.00;10.00;;;;;27.03;40.74;101222.28;5029427;28;44835;-71
2022/06/18 04:29:19;;;;;;;;;9.00;9.00;;;;;26.92;40.86;101213.50;5028799;28;44944;-71
2022/06/18 04:31:45;;;;;;;;;10.00;10.00;;;;;27.04;40.98;101235.00;5029334;28;45824;-70
2022/06/18 04:34:10;;;;;;;;;11.67;11.67;;;;;27.00;41.13;101228.75;5027326;28;45109;-70
2022/06/18 04:36:39;;;;;;;;;13.67;11.00;;;;;27.00;41.01;101216.88;5028950;28;45026;-71
2022/06/18 04:39:06;;;;;;;;;10.00;9.00;;;;;27.03;41.00;101235.97;5029045;28;45330;-70
2022/06/18 04:41:31;;;;;;;;;14.67;11.33;;;;;26.85;41.38;101210.09;5028253;28;45222;-69
2022/06/18 04:43:58;;;;;;;;;13.33;11.00;;;;;26.93;41.35;101231.78;5045032;28;45046;-70
2022/06/18 04:46:23;;;;;;;;;10.33;9.00;;;;;26.83;41.14;101215.63;5031954;28;45751;-69
2022/06/18 04:48:49;;;;;;;;;10.67;10.67;;;;;26.94;41.22;101239.94;5031577;28;44983;-71
2022/06/18 04:51:14;;;;;;;;;10.00;8.33;;;;;26.95;41.27;101243.56;5030930;28;51698;-70
2022/06/18 04:53:40;;;;;;;;;9.33;9.33;;;;;26.56;41.33;101183.63;5030336;28;45142;-72
2022/06/18 04:56:06;;;;;;;;;13.00;13.00;;;;;26.87;41.49;101248.41;5031982;28;45127;-71
2022/06/18 04:58:32;;;;;;;;;10.67;10.67;;;;;26.81;41.39;101238.53;5029504;28;45319;-69
2022/06/18 05:00:59;;;;;;;;;11.00;11.00;;;;;26.73;41.39;101225.09;5030394;28;45839;-69
2022/06/18 05:03:25;;;;;;;;;12.00;10.67;;;;;26.89;41.34;101243.78;5029357;28;45115;-70
2022/06/18 05:05:51;;;;;;;;;9.33;9.33;;;;;26.91;41.06;101245.53;5030386;28;45216;-69
2022/06/18 05:08:17;;;;;;;;;12.33;12.33;;;;;26.85;40.88;101234.75;5031490;28;45062;-71
2022/06/18 05:10:42;;;;;;;;;9.67;9.67;;;;;26.97;40.79;101245.31;5028370;28;45170;-70
2022/06/18 05:13:08;;;;;;;;;10.00;9.33;;;;;26.88;40.98;101223.69;5030145;28;45080;-70
2022/06/18 05:15:35;;;;;;;;;13.33;13.33;;;;;27.10;40.47;101245.78;5027642;28;44908;-69
2022/06/18 05:18:01;;;;;;;;;8.67;8.00;;;;;27.10;40.79;101240.28;5028725;28;45326;-69
2022/06/18 05:20:26;;;;;;;;;12.00;11.67;;;;;27.11;40.55;101233.88;5030031;28;45705;-69
2022/06/18 05:22:52;;;;;;;;;15.67;12.67;;;;;27.14;40.70;101230.09;5029997;28;45014;-69
2022/06/18 05:25:19;;;;;;;;;12.33;11.67;;;;;27.09;40.57;101230.28;5030093;28;45119;-70
2022/06/18 05:27:46;;;;;;;;;17.25;16.25;;;;;27.07;40.27;101209.34;5030057;28;45119;-70
2022/06/18 05:30:17;;;;;;;;;12.33;9.33;;;;;27.21;40.24;101231.72;5029239;28;45199;-70
2022/06/18 05:32:43;;;;;;;;;11.33;11.33;;;;;27.15;40.36;101226.44;5030600;28;45045;-70
2022/06/18 05:35:10;;;;;;;;;10.33;10.33;;;;;27.07;40.31;101220.31;5024622;28;45461;-70
2022/06/18 05:37:37;;;;;;;;;13.00;12.67;;;;;27.01;40.46;101205.88;5031575;28;45131;-69
2022/06/18 05:40:03;;;;;;;;;11.00;11.00;;;;;27.17;40.08;101224.50;5032367;28;46429;-71
2022/06/18 05:42:29;;;;;;;;;12.67;12.67;;;;;27.23;40.12;101221.56;5032242;28;45167;-70
2022/06/18 05:44:55;;;;;;;;;13.33;12.00;;;;;26.99;39.87;101177.59;5031478;28;45397;-70
2022/06/18 05:47:23;;;;;;;;;12.33;9.00;;;;;27.26;39.87;101224.19;5031109;28;45238;-72
2022/06/18 05:49:49;;;;;;;;;12.67;11.00;;;;;27.26;39.75;101218.72;5033217;28;45096;-70
2022/06/18 05:52:14;;;;;;;;;11.67;9.33;;;;;27.20;39.77;101205.22;5032485;28;45735;-69
2022/06/18 05:54:40;;;;;;;;;11.33;9.33;;;;;27.22;39.56;101206.03;5032538;28;45156;-70
2022/06/18 05:57:06;;;;;;;;;8.33;8.33;;;;;27.17;39.57;101202.56;5034215;28;45045;-71
2022/06/18 05:59:32;;;;;;;;;12.67;11.67;;;;;27.29;39.30;101212.19;5032038;28;45239;-69
2022/06/18 06:01:57;;;;;;;;;10.00;10.00;;;;;27.26;39.17;101201.38;5029580;28;45187;-71
2022/06/18 06:04:24;;;;;;;;;11.00;11.00;;;;;27.28;39.32;101203.09;5032964;28;45074;-70
2022/06/18 06:06:51;;;;;;;;;10.33;10.33;;;;;27.35;39.42;101207.41;5031783;28;45418;-70
2022/06/18 06:11:28;;;;;;;;;15.33;13.67;;;;;27.31;39.37;101205.75;5029268;28;45424;-71
2022/06/18 06:12:03;;;;;;;;;13.67;13.33;;;;;27.36;39.42;101208.34;5031672;28;45072;-70
2022/06/18 06:14:28;;;;;;;;;17.00;16.50;;;;;27.26;39.41;101177.56;5031265;28;45610;-68
2022/06/18 06:16:54;;;;;;;;;13.00;12.00;;;;;27.43;39.18;101193.44;5028330;28;45704;-68
2022/06/18 06:19:19;;;;;;;;;16.00;13.33;;;;;27.49;39.19;101186.84;5028300;28;45555;-69
2022/06/18 06:21:44;;;;;;;;;16.00;12.33;;;;;27.50;39.84;101200.47;5023590;28;45394;-65
2022/06/18 06:24:10;;;;;;;;;8.00;8.00;;;;;27.57;39.88;101195.69;5028764;28;45220;-68
2022/06/18 06:26:35;;;;;;;;;11.33;10.33;;;;;27.65;39.03;101198.13;5028995;28;45268;-68
2022/06/18 06:29:02;;;;;;;;;10.33;8.67;;;;;27.61;39.27;101178.13;5028348;28;45671;-70
2022/06/18 06:31:28;;;;;;;;;12.67;11.67;;;;;27.77;39.26;101198.56;5028918;28;45314;-71
2022/06/18 06:33:53;;;;;;;;;11.00;8.33;;;;;27.83;38.93;101197.41;5031167;28;45162;-69
2022/06/18 06:36:19;;;;;;;;;12.67;9.67;;;;;27.87;39.20;101193.59;5031420;28;45164;-69
2022/06/18 06:38:44;;;;;;;;;11.00;11.00;;;;;27.75;38.60;101170.28;5032045;28;45415;-69
2022/06/18 06:41:22;;;;;;;;;12.67;12.00;;;;;27.96;38.53;101195.13;5029256;28;45184;-66
2022/06/18 06:43:47;;;;;;;;;11.67;11.00;;;;;27.94;37.94;101177.81;5032358;28;45076;-70
2022/06/18 06:46:15;;;;;;;;;14.67;13.00;;;;;27.69;37.71;101122.94;5032961;28;44941;-68
2022/06/18 06:48:41;;;;;;;;;9.67;9.33;;;;;27.95;37.89;101163.13;5029181;28;46709;-66
2022/06/18 06:51:19;;;;;;;;;11.00;11.00;;;;;28.08;37.65;101185.50;5043949;28;45408;-73
2022/06/18 06:53:45;;;;;;;;;11.67;11.67;;;;;28.27;37.69;101193.91;5020854;28;45197;-72
2022/06/18 06:58:57;;;;;;;;;13.67;12.67;;;;;28.41;36.73;101213.50;5023299;28;45650;-71
2022/06/18 07:01:22;;;;;;;;;12.33;12.33;;;;;28.39;37.29;101204.38;5028764;28;45785;-67
2022/06/18 07:03:48;;;;;;;;;11.33;10.67;;;;;28.48;36.95;101203.13;5030031;28;45454;-68
2022/06/18 07:06:13;;;;;;;;;17.25;16.50;;;;;28.53;36.94;101206.59;5028545;28;45135;-69
2022/06/18 07:08:40;;;;;;;;;11.67;11.00;;;;;28.57;37.65;101208.25;5023510;28;46520;-69
2022/06/18 07:11:06;;;;;;;;;14.33;14.00;;;;;28.49;36.72;101174.66;5024598;28;45202;-69
2022/06/18 07:13:32;;;;;;;;;8.00;8.00;;;;;28.30;36.30;101131.47;5027387;28;46551;-69
2022/06/18 07:15:58;;;;;;;;;15.67;14.00;;;;;28.26;35.85;101120.66;5027747;28;44938;-68
2022/06/18 07:18:26;;;;;;;;;14.67;12.33;;;;;28.74;36.88;101193.84;5029897;28;45136;-67
2022/06/18 07:20:52;;;;;;;;;12.67;11.00;;;;;28.66;35.93;101168.50;5027798;28;45362;-74
2022/06/18 07:23:17;;;;;;;;;16.67;13.33;;;;;28.88;36.46;101192.34;5030236;28;45234;-75
2022/06/18 07:25:43;;;;;;;;;12.00;10.00;;;;;29.01;36.41;101199.97;5027563;28;46198;-68
2022/06/18 07:28:09;;;;;;;;;7.33;7.33;;;;;28.97;35.35;101179.09;5027341;28;46297;-69
2022/06/18 07:30:36;;;;;;;;;14.67;12.67;;;;;29.12;36.30;101191.28;5029685;28;45364;-69
2022/06/18 07:33:02;;;;;;;;;11.00;11.00;;;;;29.18;35.04;101188.25;5026115;28;45178;-74
2022/06/18 07:35:29;;;;;;;;;12.00;11.00;;;;;29.28;35.30;101190.63;5024347;28;45205;-75
2022/06/18 07:37:56;;;;;;;;;12.33;12.00;;;;;29.30;34.48;101180.41;5026999;28;46697;-74
2022/06/18 07:40:22;;;;;;;;;11.67;11.33;;;;;29.26;34.52;101159.53;5027616;28;45273;-68
2022/06/18 07:42:50;;;;;;;;;15.33;12.33;;;;;29.47;34.34;101175.06;5028946;28;45040;-71
2022/06/18 07:45:21;;;;;;;;;14.67;13.33;;;;;29.63;34.60;101188.09;5029504;28;45333;-67
2022/06/18 07:47:47;;;;;;;;;10.33;10.33;;;;;29.72;34.24;101196.84;5029188;28;45417;-71
2022/06/18 07:50:14;;;;;;;;;13.33;13.33;;;;;29.82;33.78;101183.56;5030539;28;45150;-73
2022/06/18 07:52:40;;;;;;;;;14.00;12.00;;;;;29.79;33.55;101158.03;5023008;28;45061;-70
2022/06/18 07:55:10;;;;;;;;;12.33;10.00;;;;;29.94;33.84;101157.28;5026358;28;45183;-71
2022/06/18 07:57:35;;;;;;;;;15.67;15.67;;;;;30.14;33.87;101176.50;5020564;28;45705;-74
2022/06/18 08:00:01;;;;;;;;;13.00;12.00;;;;;29.95;33.42;101135.16;5033114;28;45396;-71
2022/06/18 08:02:29;;;;;;;;;14.00;11.33;;;;;30.21;33.21;101171.59;5011440;28;47054;-71
2022/06/18 08:04:54;;;;;;;;;15.33;13.67;;;;;30.28;32.87;101167.53;5011999;28;45734;-71
2022/06/18 08:07:20;;;;;;;;;14.67;11.33;;;;;30.31;33.49;101161.88;5023556;28;47943;-72
2022/06/18 08:09:45;;;;;;;;;12.33;11.33;;;;;30.38;32.66;101161.63;5009934;28;45474;-72
2022/06/18 08:12:10;;;;;;;;;14.00;14.00;;;;;30.37;32.93;101155.19;5011272;28;45619;-73
2022/06/18 08:14:36;;;;;;;;;12.33;12.33;;;;;30.45;33.10;101163.09;5014416;28;45426;-69
2022/06/18 08:17:01;;;;;;;;;14.33;11.67;;;;;30.47;32.56;101152.88;5014173;28;46300;-73
2022/06/18 08:19:26;;;;;;;;;11.00;9.67;;;;;30.54;32.43;101147.94;5013647;28;45394;-73
2022/06/18 08:21:52;;;;;;;;;13.33;12.33;;;;;30.65;32.29;101142.75;5014825;28;45329;-71
2022/06/18 08:24:19;;;;;;;;;17.00;14.33;;;;;30.58;32.43;101108.22;5013921;28;45377;-73
2022/06/18 08:26:47;;;;;;;;;13.33;11.67;;;;;30.80;32.24;101135.56;5016715;28;46356;-72
2022/06/18 08:29:17;;;;;;;;;14.67;13.67;;;;;30.65;32.24;101099.50;5014584;28;45371;-72
2022/06/18 08:31:43;;;;;;;;;10.00;9.33;;;;;30.95;32.15;101134.78;5014809;28;45481;-72
2022/06/18 08:34:08;;;;;;;;;14.33;14.33;;;;;31.01;32.29;101130.81;5015377;28;45212;-70
2022/06/18 08:36:34;;;;;;;;;15.33;12.33;;;;;31.02;31.54;101124.34;5014699;28;45473;-70
2022/06/18 08:39:00;;;;;;;;;12.67;12.00;;;;;30.98;31.89;101100.63;5014353;28;45680;-71
2022/06/18 08:41:41;;;;;;;;;16.00;15.00;;;;;31.31;31.50;101132.88;5009816;28;45552;-72
2022/06/18 08:44:28;;;;;;;;;15.00;13.00;;;;;31.31;31.02;101121.84;5016022;28;45279;-72
2022/06/18 08:47:20;;;;;;;;;14.00;12.67;;;;;31.29;31.03;101097.09;5029632;28;48327;-74
2022/06/18 08:50:25;;;;;;;;;17.67;14.67;;;;;31.52;31.04;101119.81;5011406;28;45431;-70
2022/06/18 08:52:56;;;;;;;;;14.67;12.67;;;;;31.60;30.88;101112.88;5012890;28;45423;-72
2022/06/18 08:55:24;;;;;;;;;19.25;17.50;;;;;31.69;30.67;101119.72;5007589;28;45699;-72
2022/06/18 08:57:59;;;;;;;;;11.00;10.00;;;;;31.79;30.52;101111.81;5010721;28;46634;-70
2022/06/18 09:00:34;;;;;;;;;19.00;14.67;;;;;31.89;30.87;101106.66;5007237;28;45520;-71
2022/06/18 09:03:37;;;;;;;;;18.00;16.50;;;;;31.98;30.36;101092.31;5015387;28;45835;-74
2022/06/18 09:06:26;;;;;;;;;14.33;12.00;;;;;32.00;30.17;101084.81;5028767;28;45192;-75
2022/06/18 09:09:28;;;;;;;;;13.33;12.67;;;;;32.11;29.71;101096.19;5029110;28;45764;-73
2022/06/18 09:11:56;;;;;;;;;14.67;12.00;;;;;32.07;29.45;101074.34;5024536;28;45317;-72
2022/06/18 09:14:36;;;;;;;;;14.00;13.00;;;;;32.23;29.71;101090.91;5033475;28;45377;-74
2022/06/18 09:17:26;;;;;;;;;12.00;12.00;;;;;32.31;29.04;101072.88;5032079;28;45407;-73
2022/06/18 09:20:10;;;;;;;;;16.00;15.00;;;;;32.42;28.91;101082.41;5032092;28;45269;-72
2022/06/18 09:22:44;;;;;;;;;14.00;11.33;;;;;32.39;28.45;101054.91;5029884;28;45237;-74
2022/06/18 09:25:18;;;;;;;;;12.00;12.00;;;;;32.48;28.64;101060.78;5034932;28;45152;-74
2022/06/18 09:27:53;;;;;;;;;9.00;9.00;;;;;32.63;28.83;101061.75;5032385;28;45063;-74
2022/06/18 09:30:21;;;;;;;;;12.00;11.00;;;;;32.79;28.51;101075.56;5031926;28;45782;-74
2022/06/18 09:32:55;;;;;;;;;13.00;12.00;;;;;32.68;27.63;101042.13;5029856;28;45090;-75
2022/06/18 09:35:28;;;;;;;;;12.00;12.00;;;;;32.94;27.82;101072.81;5016769;28;45802;-74
2022/06/18 09:38:01;;;;;;;;;12.33;12.33;;;;;33.01;26.58;101065.91;5019876;28;45650;-73
2022/06/18 09:40:38;;;;;;;;;14.33;13.00;;;;;33.09;26.41;101060.78;5018542;28;45930;-74
2022/06/18 09:43:15;;;;;;;;;13.67;12.00;;;;;33.12;26.80;101051.41;5026603;28;45194;-76
2022/06/18 09:45:50;;;;;;;;;12.00;11.33;;;;;33.14;26.85;101043.88;5031116;28;45241;-73
2022/06/18 09:48:15;;;;;;;;;9.67;8.67;;;;;32.95;25.81;100999.84;5033969;28;45110;-76
2022/06/18 09:50:45;;;;;;;;;9.67;9.67;;;;;33.38;26.00;101052.53;5015282;28;45372;-72
2022/06/18 09:53:11;;;;;;;;;13.67;11.00;;;;;33.41;25.12;101053.22;5024785;28;45387;-74
2022/06/18 09:55:41;;;;;;;;;12.67;12.67;;;;;33.47;25.33;101049.13;5026464;28;45228;-73
2022/06/18 09:58:14;;;;;;;;;13.67;12.00;;;;;33.43;25.30;101017.97;5028496;28;45235;-73
2022/06/18 10:00:42;;;;;;;;;11.00;11.00;;;;;33.57;25.54;101025.38;5027234;28;46536;-73
2022/06/18 10:06:52;;;;;;;;;14.00;11.00;;;;;33.64;24.75;101031.41;5027157;28;45595;-76
2022/06/18 10:08:48;;;;;;;;;13.33;10.67;;;;;33.75;24.45;101017.75;5034180;28;44879;-75
2022/06/18 10:11:15;;;;;;;;;11.67;10.33;;;;;33.81;24.33;101008.16;5029819;28;47799;-75
2022/06/18 10:14:06;;;;;;;;;10.67;10.33;;;;;33.84;23.76;101007.94;5035797;28;45138;-73
2022/06/18 10:16:53;;;;;;;;;9.00;6.00;;;;;33.97;24.32;101006.13;5027497;28;45488;-77
2022/06/18 10:19:39;;;;;;;;;9.67;9.67;;;;;33.90;23.28;100979.78;5030039;28;45481;-74
2022/06/18 10:22:25;;;;;;;;;11.33;11.33;;;;;34.12;23.18;100995.88;5029714;28;45785;-72
2022/06/18 10:25:00;;;;;;;;;9.67;9.67;;;;;34.18;23.09;101001.97;5031507;28;45058;-75
2022/06/18 10:27:37;;;;;;;;;10.00;9.00;;;;;34.08;22.36;100974.88;5032035;28;45312;-71
2022/06/18 10:30:15;;;;;;;;;11.33;11.33;;;;;34.20;21.87;100981.44;5033673;28;45223;-73
2022/06/18 10:32:49;;;;;;;;;8.67;8.00;;;;;34.20;22.22;100992.53;5031094;28;45409;-72
2022/06/18 10:35:25;;;;;;;;;8.00;8.00;;;;;34.04;22.79;100951.13;5032624;28;45164;-75
2022/06/18 10:38:23;;;;;;;;;10.67;7.33;;;;;34.29;22.11;100989.16;5028533;28;45209;-73
2022/06/18 10:40:48;;;;;;;;;10.00;8.00;;;;;34.31;22.28;100989.06;5017201;28;45342;-71
2022/06/18 10:43:50;;;;;;;;;13.33;12.00;;;;;34.30;21.52;100987.28;5028583;28;45248;-71
2022/06/18 10:46:19;;;;;;;;;9.00;9.00;;;;;34.34;21.64;100986.97;5027664;28;45128;-71
2022/06/18 10:48:48;;;;;;;;;9.67;9.67;;;;;34.19;21.06;100946.41;5029244;28;45239;-75
2022/06/18 10:51:23;;;;;;;;;7.67;7.33;;;;;34.36;21.38;100964.66;5030845;28;45246;-72
2022/06/18 10:53:49;;;;;;;;;10.67;8.67;;;;;34.03;22.16;100896.66;5032035;28;45312;-75
2022/06/18 10:56:18;;;;;;;;;10.33;10.33;;;;;34.24;22.21;100923.94;5025454;28;45215;-74
2022/06/18 10:58:59;;;;;;;;;12.33;11.00;;;;;34.37;22.10;100949.81;5029570;28;45160;-74
2022/06/18 11:01:38;;;;;;;;;12.33;11.33;;;;;34.31;22.50;100948.34;5030492;28;45152;-76
2022/06/18 11:04:18;;;;;;;;;10.67;9.00;;;;;34.36;22.57;100949.91;5030479;28;47728;-75
2022/06/18 11:06:46;;;;;;;;;9.67;9.67;;;;;34.34;22.98;100941.69;5029167;28;45112;-72
2022/06/18 11:09:21;;;;;;;;;13.00;10.00;;;;;34.45;23.00;100943.69;5032098;28;45085;-71
2022/06/18 11:11:55;;;;;;;;;13.67;10.67;;;;;34.48;22.61;100932.38;5029157;28;45048;-73
2022/06/18 11:14:21;;;;;;;;;15.00;12.00;;;;;34.51;22.75;100932.16;5028592;28;45176;-74
2022/06/18 11:16:48;;;;;;;;;12.00;12.00;;;;;34.55;22.45;100927.28;5028671;28;45045;-73
2022/06/18 11:19:24;;;;;;;;;10.00;9.33;;;;;34.33;22.82;100884.44;5024534;28;45160;-72
2022/06/18 11:21:50;;;;;;;;;12.33;10.67;;;;;34.52;21.94;100904.31;5032309;28;45559;-77
2022/06/18 11:24:28;;;;;;;;;10.33;9.67;;;;;34.65;21.59;100915.41;5032466;28;45636;-76
2022/06/18 11:26:57;;;;;;;;;10.33;9.00;;;;;34.66;22.12;100914.41;5030142;28;45199;-78
2022/06/18 11:29:28;;;;;;;;;10.00;8.00;;;;;34.73;21.53;100911.22;5029320;28;45024;-79
2022/06/18 11:31:57;;;;;;;;;10.00;9.33;;;;;34.77;22.05;100902.56;5031042;28;45118;-71
2022/06/18 11:34:26;;;;;;;;;10.67;10.00;;;;;34.81;21.75;100895.75;5033674;28;45370;-75
2022/06/18 11:36:56;;;;;;;;;13.67;12.00;;;;;34.85;21.59;100893.69;5031984;28;44970;-75
2022/06/18 11:39:26;;;;;;;;;11.00;9.67;;;;;34.60;21.35;100847.34;5033898;28;45073;-75